Linkwood, Maryland
Current Conditions -  °F | °C
As of 12:41 PM on Monday 22 Dec 2014 (Local Time) from KCGE Reporting Station
Scattered Clouds Scattered Clouds  
Wind Chill: 34°   Ceiling: Unl
Heat Index: 39°   Visibility: 7mi
Dew Point: 34°   Wind: 7mph
Humidity: 81%   Direction: 10°N
Pressure: 30.19"   Gusts: NA
Location:  38.54°N, 75.95°W
Report Text: KCGE 221741Z AUTO 01006KT 7SM SCT042 04/01 A3019 RMK AO1
Loading
Personal Weather Stations






























Interactive Weather Map New forecast layout! Learn more

10-Day Weather Forecast

Advertisements
Track Severe Weather on mobile